Terminal Aerodrome Forecast
Issued by NWS Rapid City, SD

Home | Current Version | Previous Version | Text Only | Print | Product List | Glossary Off
Versions: 1 2 3 4 5 6 7 8 9 10 11 12

000
FTUS43 KUNR 222300
TAFRAP
TAF
KRAP 222320Z 2300/2324 16013KT P6SM -SHRA SCT070 OVC130
     FM230400 21006KT P6SM OVC100
     FM231200 35009KT P6SM SCT100 BKN250=

USA.gov is the U.S. government's official web portal to all federal, state and local government web resources and services.